createdAt,value
2022-07-25T00:01:03.941Z,0.70
2022-07-25T00:03:52.134Z,0.80
2022-07-25T00:06:38.298Z,0.70
2022-07-25T00:09:23.635Z,0.60
2022-07-25T00:12:09.042Z,0.73
2022-07-25T00:14:56.767Z,0.60
2022-07-25T00:17:42.073Z,0.70
2022-07-25T00:20:27.755Z,0.60
2022-07-25T00:23:13.030Z,0.70
2022-07-25T00:25:58.435Z,0.63
2022-07-25T00:28:44.363Z,0.70
2022-07-25T00:31:29.759Z,0.75
2022-07-25T00:34:15.182Z,0.50
2022-07-25T00:37:00.510Z,0.70
2022-07-25T00:39:45.578Z,0.70
2022-07-25T00:42:31.027Z,0.90
2022-07-25T00:45:16.153Z,0.60
2022-07-25T00:48:01.143Z,0.82
2022-07-25T00:50:46.370Z,0.63
2022-07-25T00:53:31.541Z,0.70
2022-07-25T00:56:17.018Z,0.70
2022-07-25T00:59:02.240Z,0.73
2022-07-25T01:01:48.458Z,0.55
2022-07-25T01:04:34.176Z,0.60
2022-07-25T01:07:19.582Z,0.52
2022-07-25T01:10:06.243Z,0.67
2022-07-25T01:12:54.025Z,0.70
2022-07-25T01:15:39.676Z,0.80
2022-07-25T01:18:24.927Z,0.65
2022-07-25T01:21:10.196Z,0.70
2022-07-25T01:23:55.395Z,0.70
2022-07-25T01:26:40.903Z,0.55
2022-07-25T01:29:26.174Z,0.60
2022-07-25T01:32:13.555Z,0.60
2022-07-25T01:34:58.805Z,0.80
2022-07-25T01:37:46.064Z,0.60
2022-07-25T01:40:31.587Z,0.70
2022-07-25T01:43:16.632Z,0.50
2022-07-25T01:46:01.513Z,0.50
2022-07-25T01:48:53.382Z,0.70
2022-07-25T01:51:38.515Z,0.63
2022-07-25T01:54:23.539Z,0.70
2022-07-25T01:57:10.177Z,0.80
2022-07-25T01:59:56.621Z,0.70
2022-07-25T02:02:43.436Z,0.80
2022-07-25T02:05:28.383Z,0.60
2022-07-25T02:08:13.488Z,0.70
2022-07-25T02:10:59.132Z,0.70
2022-07-25T02:13:44.687Z,0.68
2022-07-25T02:16:30.057Z,0.60
2022-07-25T02:19:15.293Z,0.70
2022-07-25T02:22:00.523Z,0.80
2022-07-25T02:24:45.905Z,0.60
2022-07-25T02:27:30.892Z,0.60
2022-07-25T02:30:15.853Z,0.70
2022-07-25T02:33:00.699Z,0.80
2022-07-25T02:35:46.087Z,0.88
2022-07-25T02:38:31.130Z,0.70
2022-07-25T02:41:16.317Z,0.80
2022-07-25T02:44:01.758Z,0.60
2022-07-25T02:46:46.877Z,0.70
2022-07-25T02:49:32.229Z,0.70
2022-07-25T02:52:17.170Z,0.70
2022-07-25T02:55:07.543Z,0.70
2022-07-25T02:57:54.892Z,0.70
2022-07-25T03:00:40.281Z,0.63
2022-07-25T03:03:29.645Z,0.77
2022-07-25T03:06:15.570Z,0.60
2022-07-25T03:09:00.839Z,0.70
2022-07-25T03:11:46.145Z,0.60
2022-07-25T03:14:31.099Z,0.60
2022-07-25T03:17:16.087Z,0.70
2022-07-25T03:20:01.539Z,0.70
2022-07-25T03:22:46.857Z,0.75
2022-07-25T03:25:34.539Z,0.70
2022-07-25T03:28:19.400Z,0.60
2022-07-25T03:31:04.462Z,0.63
2022-07-25T03:33:49.616Z,0.70
2022-07-25T03:36:35.364Z,0.70
2022-07-25T03:39:20.673Z,0.68
2022-07-25T03:42:05.879Z,0.80
2022-07-25T03:44:51.915Z,0.75
2022-07-25T03:47:37.410Z,0.70
2022-07-25T03:50:22.924Z,0.60
2022-07-25T03:53:08.145Z,0.70
2022-07-25T03:55:55.332Z,0.60
2022-07-25T03:58:40.803Z,0.70
2022-07-25T04:01:26.585Z,0.60
2022-07-25T04:04:12.796Z,0.70
2022-07-25T04:06:57.887Z,0.70
2022-07-25T04:09:43.016Z,0.80
2022-07-25T04:12:28.302Z,0.60
2022-07-25T04:15:13.734Z,0.60
2022-07-25T04:17:59.464Z,0.63
2022-07-25T04:20:45.919Z,0.77
2022-07-25T04:23:31.468Z,0.80
2022-07-25T04:26:16.958Z,0.60
2022-07-25T04:29:03.673Z,0.80
2022-07-25T04:31:48.872Z,0.90
2022-07-25T04:34:34.079Z,0.80
2022-07-25T04:37:19.568Z,0.60
2022-07-25T04:40:05.824Z,0.70
2022-07-25T04:42:50.769Z,0.57
2022-07-25T04:45:36.583Z,0.60
2022-07-25T04:48:21.552Z,0.60
2022-07-25T04:51:07.641Z,0.70
2022-07-25T04:53:52.899Z,0.63
2022-07-25T04:56:37.866Z,0.80
2022-07-25T04:59:23.204Z,0.80
2022-07-25T05:02:08.675Z,0.77
2022-07-25T05:04:53.978Z,0.60
2022-07-25T05:07:38.848Z,0.70
2022-07-25T05:10:28.294Z,0.70
2022-07-25T05:13:13.269Z,0.65
2022-07-25T05:15:58.850Z,0.70
2022-07-25T05:18:44.153Z,0.73
2022-07-25T05:21:30.005Z,0.80
2022-07-25T05:24:15.275Z,0.80
2022-07-25T05:27:00.387Z,0.77
2022-07-25T05:29:46.261Z,0.70
2022-07-25T05:32:31.839Z,0.70
2022-07-25T05:35:17.299Z,0.82
2022-07-25T05:38:02.317Z,0.90
2022-07-25T05:40:47.380Z,0.70
2022-07-25T05:43:32.453Z,0.70
2022-07-25T05:46:17.740Z,0.80
2022-07-25T05:49:03.170Z,0.77
2022-07-25T05:51:48.887Z,0.63
2022-07-25T05:54:34.719Z,0.80
2022-07-25T05:57:20.039Z,0.63
2022-07-25T06:00:06.536Z,0.70
2022-07-25T06:02:51.836Z,0.73
2022-07-25T06:05:37.187Z,0.80
2022-07-25T06:08:22.617Z,0.90
2022-07-25T06:11:08.571Z,0.70
2022-07-25T06:13:54.874Z,0.80
2022-07-25T06:16:40.931Z,0.80
2022-07-25T06:19:26.530Z,0.80
2022-07-25T06:22:11.652Z,0.80
2022-07-25T06:24:56.805Z,0.75
2022-07-25T06:27:42.474Z,0.80
2022-07-25T06:30:27.552Z,0.90
2022-07-25T06:33:13.205Z,0.90
2022-07-25T06:35:58.506Z,0.68
2022-07-25T06:38:43.897Z,0.70
2022-07-25T06:41:29.263Z,0.90
2022-07-25T06:44:14.506Z,0.75
2022-07-25T06:47:03.850Z,0.82
2022-07-25T06:49:48.918Z,0.73
2022-07-25T06:52:33.984Z,0.88
2022-07-25T06:55:19.223Z,0.90
2022-07-25T06:58:04.663Z,0.88
2022-07-25T07:00:50.360Z,0.70
2022-07-25T07:03:38.537Z,0.70
2022-07-25T07:06:23.828Z,0.90
2022-07-25T07:09:11.097Z,0.90
2022-07-25T07:11:56.158Z,0.80
2022-07-25T07:14:43.609Z,0.90
2022-07-25T07:17:28.764Z,0.73
2022-07-25T07:20:14.238Z,0.93
2022-07-25T07:23:00.132Z,0.80
2022-07-25T07:25:47.008Z,0.80
2022-07-25T07:28:32.525Z,0.90
2022-07-25T07:31:18.308Z,0.85
2022-07-25T07:34:03.781Z,1.10
2022-07-25T07:36:49.170Z,0.90
2022-07-25T07:39:34.269Z,0.80
2022-07-25T07:42:19.809Z,0.88
2022-07-25T07:45:11.224Z,1.00
2022-07-25T07:47:56.500Z,0.80
2022-07-25T07:50:41.741Z,1.10
2022-07-25T07:53:47.472Z,0.95
2022-07-25T07:56:32.602Z,0.98
2022-07-25T07:59:18.078Z,0.85
2022-07-25T08:02:03.255Z,1.00
2022-07-25T08:04:48.535Z,1.17
2022-07-25T08:07:33.576Z,1.17
2022-07-25T08:10:29.821Z,1.30
2022-07-25T08:13:21.121Z,1.23
2022-07-25T08:16:06.843Z,1.30
2022-07-25T08:18:52.104Z,1.00
2022-07-25T08:21:37.415Z,1.10
2022-07-25T08:24:22.881Z,1.30
2022-07-25T08:27:08.523Z,1.52
2022-07-25T08:29:53.938Z,1.33
2022-07-25T08:32:57.683Z,1.60
2022-07-25T08:35:52.147Z,1.40
2022-07-25T08:38:37.723Z,1.10
2022-07-25T08:41:24.754Z,1.20
2022-07-25T08:44:13.027Z,1.30
2022-07-25T08:46:59.644Z,1.10
2022-07-25T08:49:45.003Z,1.20
2022-07-25T08:52:31.661Z,1.00
2022-07-25T08:55:20.576Z,1.10
2022-07-25T08:58:05.612Z,1.10
2022-07-25T09:00:50.748Z,1.10
2022-07-25T09:03:36.380Z,1.10
2022-07-25T09:06:22.545Z,1.10
2022-07-25T09:09:08.604Z,1.10
2022-07-25T09:11:54.034Z,1.00
2022-07-25T09:14:44.106Z,0.90
2022-07-25T09:17:29.083Z,1.20
2022-07-25T09:20:18.391Z,1.20
2022-07-25T09:23:04.153Z,1.20
2022-07-25T09:25:49.108Z,1.30
2022-07-25T09:28:42.374Z,1.30
2022-07-25T09:31:32.645Z,1.10
2022-07-25T09:34:30.753Z,1.10
2022-07-25T09:37:19.425Z,1.23
2022-07-25T09:40:15.424Z,1.25
2022-07-25T09:43:00.950Z,1.47
2022-07-25T09:45:51.714Z,1.20
2022-07-25T09:48:39.488Z,1.10
2022-07-25T09:51:28.894Z,1.30
2022-07-25T09:54:14.387Z,1.23
2022-07-25T09:56:59.352Z,1.20
2022-07-25T09:59:44.833Z,1.20
2022-07-25T10:02:41.387Z,1.23
2022-07-25T10:05:48.337Z,1.30
2022-07-25T10:08:39.683Z,1.20
2022-07-25T10:11:27.015Z,1.10
2022-07-25T10:14:12.880Z,1.17
2022-07-25T10:16:58.106Z,1.40
2022-07-25T10:19:54.268Z,1.35
2022-07-25T10:22:56.370Z,1.17
2022-07-25T10:25:48.839Z,1.27
2022-07-25T10:28:55.839Z,1.38
2022-07-25T10:31:50.638Z,1.50
2022-07-25T10:34:38.092Z,1.20
2022-07-25T10:37:29.258Z,1.23
2022-07-25T10:40:26.058Z,1.43
2022-07-25T10:43:18.924Z,1.30
2022-07-25T10:46:13.012Z,1.50
2022-07-25T10:49:00.533Z,1.23
2022-07-25T10:51:56.408Z,1.15
2022-07-25T10:54:41.416Z,1.60
2022-07-25T10:57:32.061Z,1.30
2022-07-25T11:00:17.807Z,1.40
2022-07-25T11:03:03.829Z,1.30
2022-07-25T11:05:49.067Z,1.27
2022-07-25T11:08:35.813Z,1.30
2022-07-25T11:11:21.107Z,1.30
2022-07-25T11:14:13.989Z,1.40
2022-07-25T11:17:16.927Z,1.25
2022-07-25T11:20:06.132Z,1.20
2022-07-25T11:22:53.694Z,1.60
2022-07-25T11:25:38.908Z,1.42
2022-07-25T11:28:24.116Z,1.38
2022-07-25T11:31:10.766Z,1.40
2022-07-25T11:33:56.198Z,1.40
2022-07-25T11:36:41.544Z,1.50
2022-07-25T11:39:28.712Z,1.40
2022-07-25T11:42:19.628Z,1.17
2022-07-25T11:45:15.803Z,1.40
2022-07-25T11:48:10.091Z,1.70
2022-07-25T11:50:56.054Z,1.47
2022-07-25T11:53:49.677Z,1.60
2022-07-25T11:56:43.435Z,1.60
2022-07-25T11:59:29.226Z,1.50
2022-07-25T12:02:24.848Z,1.40
2022-07-25T12:05:13.344Z,1.50
2022-07-25T12:08:00.799Z,1.52
2022-07-25T12:10:48.288Z,1.40
2022-07-25T12:13:33.762Z,1.50
2022-07-25T12:16:18.904Z,1.60
2022-07-25T12:19:08.732Z,1.63
2022-07-25T12:21:54.287Z,1.60
2022-07-25T12:24:39.338Z,1.55
2022-07-25T12:27:24.454Z,1.50
2022-07-25T12:30:10.493Z,1.67
2022-07-25T12:32:56.579Z,1.40
2022-07-25T12:35:42.705Z,1.70
2022-07-25T12:38:28.616Z,1.67
2022-07-25T12:41:17.797Z,1.65
2022-07-25T12:44:04.290Z,1.60
2022-07-25T12:46:49.799Z,1.70
2022-07-25T12:49:35.416Z,1.70
2022-07-25T12:52:20.833Z,1.60
2022-07-25T12:55:12.652Z,2.00
2022-07-25T12:57:58.048Z,1.67
2022-07-25T13:00:43.939Z,1.57
2022-07-25T13:03:29.083Z,1.60
2022-07-25T13:06:14.736Z,1.55
2022-07-25T13:09:00.311Z,1.65
2022-07-25T13:11:45.878Z,1.58
2022-07-25T13:14:31.153Z,2.03
2022-07-25T13:17:16.573Z,2.00
2022-07-25T13:20:01.925Z,1.60
2022-07-25T13:22:47.095Z,1.75
2022-07-25T13:25:33.748Z,2.00
2022-07-25T13:28:18.784Z,1.80
2022-07-25T13:31:06.919Z,1.80
2022-07-25T13:33:52.886Z,1.60
2022-07-25T13:36:39.445Z,1.80
2022-07-25T13:39:24.463Z,1.77
2022-07-25T13:42:11.123Z,1.80
2022-07-25T13:44:56.207Z,1.70
2022-07-25T13:47:41.247Z,1.80
2022-07-25T13:50:26.425Z,1.73
2022-07-25T13:53:11.741Z,1.70
2022-07-25T13:55:58.512Z,1.80
2022-07-25T13:58:43.943Z,1.90
2022-07-25T14:01:32.961Z,1.60
2022-07-25T14:04:18.405Z,1.50
2022-07-25T14:07:04.170Z,1.65
2022-07-25T14:09:49.461Z,1.70
2022-07-25T14:12:35.684Z,1.70
2022-07-25T14:15:20.840Z,1.60
2022-07-25T14:18:06.115Z,1.73
2022-07-25T14:20:51.504Z,1.70
2022-07-25T14:23:36.821Z,1.70
2022-07-25T14:26:21.841Z,1.50
2022-07-25T14:29:11.113Z,1.67
2022-07-25T14:31:56.761Z,1.77
2022-07-25T14:34:41.884Z,1.77
2022-07-25T14:37:27.148Z,1.90
2022-07-25T14:40:13.545Z,2.00
2022-07-25T14:42:58.812Z,1.80
2022-07-25T14:45:44.099Z,1.92
2022-07-25T14:48:29.452Z,1.98
2022-07-25T14:51:14.808Z,1.80
2022-07-25T14:53:59.960Z,1.90
2022-07-25T14:56:45.189Z,1.60
2022-07-25T14:59:30.608Z,1.70
2022-07-25T15:02:15.738Z,1.60
2022-07-25T15:05:00.697Z,1.70
2022-07-25T15:07:45.771Z,1.70
2022-07-25T15:10:30.992Z,1.60
2022-07-25T15:13:32.251Z,1.70
2022-07-25T15:16:17.503Z,1.60
2022-07-25T15:19:18.210Z,1.80
2022-07-25T15:22:03.444Z,1.77
2022-07-25T15:25:22.463Z,1.60
2022-07-25T15:27:53.596Z,1.83
2022-07-25T15:30:38.513Z,1.80
2022-07-25T15:33:23.811Z,1.80
2022-07-25T15:36:09.705Z,1.55
2022-07-25T15:38:55.081Z,1.70
2022-07-25T15:41:40.208Z,1.70
2022-07-25T15:44:25.551Z,1.65
2022-07-25T15:47:10.706Z,1.70
2022-07-25T15:49:55.977Z,1.88
2022-07-25T15:52:41.235Z,1.80
2022-07-25T15:55:26.155Z,1.90
2022-07-25T15:58:11.566Z,1.58
2022-07-25T16:00:56.967Z,1.63
2022-07-25T16:03:42.602Z,1.60
2022-07-25T16:06:28.026Z,1.65
2022-07-25T16:09:14.610Z,1.70
2022-07-25T16:12:00.315Z,1.75
2022-07-25T16:14:45.182Z,1.67
2022-07-25T16:17:31.956Z,1.80
2022-07-25T16:20:17.521Z,1.50
2022-07-25T16:23:02.967Z,1.70
2022-07-25T16:25:48.374Z,1.70
2022-07-25T16:28:33.378Z,1.87
2022-07-25T16:31:18.285Z,1.80
2022-07-25T16:34:03.592Z,1.50
2022-07-25T16:36:48.919Z,1.70
2022-07-25T16:39:33.882Z,1.48
2022-07-25T16:42:19.327Z,1.80
2022-07-25T16:45:05.593Z,1.58
2022-07-25T16:47:51.285Z,1.40
2022-07-25T16:50:36.388Z,1.77
2022-07-25T16:53:21.744Z,1.60
2022-07-25T16:56:06.716Z,1.77
2022-07-25T16:58:53.064Z,1.50
2022-07-25T17:01:38.432Z,1.38
2022-07-25T17:04:23.605Z,1.40
2022-07-25T17:07:09.725Z,1.63
2022-07-25T17:09:54.880Z,1.33
2022-07-25T17:12:40.088Z,1.45
2022-07-25T17:15:25.252Z,1.55
2022-07-25T17:18:10.189Z,1.70
2022-07-25T17:20:55.688Z,1.70
2022-07-25T17:23:41.095Z,1.60
2022-07-25T17:26:26.336Z,1.40
2022-07-25T17:29:11.751Z,1.48
2022-07-25T17:31:57.002Z,1.70
2022-07-25T17:34:42.152Z,1.38
2022-07-25T17:37:28.990Z,1.90
2022-07-25T17:40:14.366Z,1.83
2022-07-25T17:42:59.597Z,1.65
2022-07-25T17:45:45.083Z,1.67
2022-07-25T17:48:30.364Z,1.85
2022-07-25T17:51:15.661Z,1.60
2022-07-25T17:54:01.059Z,1.70
2022-07-25T17:56:46.164Z,1.70
2022-07-25T17:59:31.713Z,1.63
2022-07-25T18:02:17.403Z,1.40
2022-07-25T18:05:03.667Z,1.40
2022-07-25T18:07:49.605Z,1.50
2022-07-25T18:10:34.933Z,1.65
2022-07-25T18:13:21.945Z,1.60
2022-07-25T18:16:09.060Z,1.45
2022-07-25T18:18:54.586Z,1.60
2022-07-25T18:21:40.272Z,1.70
2022-07-25T18:24:29.206Z,1.40
2022-07-25T18:27:15.001Z,1.70
2022-07-25T18:30:00.710Z,1.50
2022-07-25T18:32:46.208Z,1.60
2022-07-25T18:35:31.479Z,1.70
2022-07-25T18:38:16.459Z,1.45
2022-07-25T18:41:27.666Z,1.88
2022-07-25T18:44:07.340Z,1.40
2022-07-25T18:46:52.733Z,1.60
2022-07-25T18:49:38.233Z,1.58
2022-07-25T18:52:24.070Z,1.52
2022-07-25T18:55:09.592Z,1.40
2022-07-25T18:57:55.092Z,1.60
2022-07-25T19:00:40.395Z,1.60
2022-07-25T19:03:25.809Z,1.60
2022-07-25T19:06:11.339Z,1.60
2022-07-25T19:08:56.897Z,1.45
2022-07-25T19:11:42.551Z,1.50
2022-07-25T19:14:28.770Z,1.43
2022-07-25T19:17:13.799Z,1.40
2022-07-25T19:20:00.689Z,1.63
2022-07-25T19:22:45.563Z,1.67
2022-07-25T19:25:30.986Z,1.63
2022-07-25T19:28:16.452Z,1.40
2022-07-25T19:31:02.153Z,1.50
2022-07-25T19:33:47.358Z,1.50
2022-07-25T19:36:32.954Z,1.20
2022-07-25T19:39:18.181Z,1.58
2022-07-25T19:42:07.445Z,1.60
2022-07-25T19:44:52.351Z,1.67
2022-07-25T19:47:37.398Z,1.40
2022-07-25T19:50:22.594Z,1.30
2022-07-25T19:53:07.821Z,1.23
2022-07-25T19:55:52.963Z,1.53
2022-07-25T19:58:39.111Z,1.67
2022-07-25T20:01:31.356Z,1.40
2022-07-25T20:04:16.476Z,1.45
2022-07-25T20:07:02.334Z,1.70
2022-07-25T20:09:47.964Z,1.50
2022-07-25T20:12:34.531Z,1.60
2022-07-25T20:15:19.883Z,1.42
2022-07-25T20:18:04.987Z,1.42
2022-07-25T20:20:50.403Z,1.60
2022-07-25T20:23:35.680Z,1.43
2022-07-25T20:26:20.583Z,1.45
2022-07-25T20:29:07.739Z,1.40
2022-07-25T20:31:53.998Z,1.50
2022-07-25T20:34:39.441Z,1.23
2022-07-25T20:37:24.735Z,1.33
2022-07-25T20:40:12.078Z,1.48
2022-07-25T20:42:56.904Z,1.63
2022-07-25T20:45:42.208Z,1.50
2022-07-25T20:48:27.258Z,1.48
2022-07-25T20:51:15.469Z,1.50
2022-07-25T20:54:00.913Z,1.70
2022-07-25T20:56:45.932Z,1.50
2022-07-25T20:59:31.444Z,1.50
2022-07-25T21:02:17.562Z,1.45
2022-07-25T21:05:03.283Z,1.67
2022-07-25T21:07:48.272Z,1.70
2022-07-25T21:10:33.359Z,1.48
2022-07-25T21:13:18.741Z,1.50
2022-07-25T21:16:05.351Z,1.60
2022-07-25T21:18:50.797Z,1.40
2022-07-25T21:21:36.270Z,1.60
2022-07-25T21:24:21.632Z,1.60
2022-07-25T21:27:06.934Z,1.60
2022-07-25T21:29:52.377Z,1.60
2022-07-25T21:32:39.137Z,1.50
2022-07-25T21:35:24.456Z,1.50
2022-07-25T21:38:09.640Z,1.50
2022-07-25T21:40:56.894Z,1.48
2022-07-25T21:43:42.276Z,1.50
2022-07-25T21:46:27.467Z,1.50
2022-07-25T21:49:41.319Z,1.55
2022-07-25T21:52:34.425Z,1.52
2022-07-25T21:55:21.506Z,1.40
2022-07-25T21:58:07.714Z,1.52
2022-07-25T22:00:53.200Z,1.47
2022-07-25T22:03:40.346Z,1.70
2022-07-25T22:06:25.430Z,1.35
2022-07-25T22:09:10.666Z,1.40
2022-07-25T22:11:57.497Z,1.42
2022-07-25T22:14:42.850Z,1.40
2022-07-25T22:17:28.342Z,1.50
2022-07-25T22:20:34.243Z,1.50
2022-07-25T22:23:19.379Z,1.50
2022-07-25T22:26:04.239Z,1.40
2022-07-25T22:28:50.645Z,1.60
2022-07-25T22:31:38.663Z,1.40
2022-07-25T22:34:24.268Z,1.50
2022-07-25T22:37:09.655Z,1.60
2022-07-25T22:39:59.103Z,1.52
2022-07-25T22:42:45.944Z,1.57
2022-07-25T22:45:31.325Z,1.40
2022-07-25T22:48:16.529Z,1.55
2022-07-25T22:51:01.928Z,1.70
2022-07-25T22:53:47.047Z,1.38
2022-07-25T22:56:32.482Z,1.60
2022-07-25T22:59:17.843Z,1.77
2022-07-25T23:02:02.830Z,1.48
2022-07-25T23:04:47.762Z,1.50
2022-07-25T23:07:33.921Z,1.60
2022-07-25T23:10:19.286Z,1.60
2022-07-25T23:13:04.191Z,1.55
2022-07-25T23:15:51.726Z,1.33
2022-07-25T23:18:37.166Z,1.40
2022-07-25T23:21:23.127Z,1.48
2022-07-25T23:24:08.198Z,1.53
2022-07-25T23:26:53.697Z,1.45
2022-07-25T23:29:38.682Z,1.20
2022-07-25T23:32:23.984Z,1.50
2022-07-25T23:35:10.021Z,1.63
2022-07-25T23:37:55.024Z,1.37
2022-07-25T23:40:40.496Z,1.55
2022-07-25T23:43:55.006Z,1.50
2022-07-25T23:46:31.293Z,1.50
2022-07-25T23:49:16.939Z,1.40
2022-07-25T23:52:02.182Z,1.50
2022-07-25T23:54:47.515Z,1.48
2022-07-25T23:57:32.405Z,1.52
